Time;durP1;ratioP1;P1;durP2;ratioP2;P2;SDS_P1;SDS_P2;PMS_P1;PMS_P2;Temp;Humidity;BMP_temperature;BMP_pressure;BME280_temperature;BME280_humidity;BME280_pressure;Samples;Min_cycle;Max_cycle;Signal;HPM_P1;HPM_P2
2023/09/05 00:00:15;;;;;;;8.98;4.80;;;14.60;99.90;;;13.64;100.00;102171.81;4944014;28;20034;-77
2023/09/05 00:02:41;;;;;;;10.88;4.78;;;14.70;99.90;;;13.66;100.00;102167.34;4935810;29;20031;-77
2023/09/05 00:05:11;;;;;;;9.40;4.15;;;14.70;99.90;;;13.72;100.00;102169.75;4946873;28;20054;-77
2023/09/05 00:07:39;;;;;;;6.80;4.63;;;14.70;99.90;;;13.77;100.00;102166.94;4947901;28;20039;-76
2023/09/05 00:10:13;;;;;;;8.40;4.50;;;14.80;99.90;;;13.82;100.00;102164.13;4946455;28;20044;-76
2023/09/05 00:12:42;;;;;;;7.00;4.30;;;14.80;99.90;;;13.84;100.00;102165.78;4943183;28;20147;-77
2023/09/05 00:15:13;;;;;;;8.07;4.70;;;14.80;99.90;;;13.83;100.00;102157.94;4944626;28;20047;-76
2023/09/05 00:17:42;;;;;;;6.20;3.72;;;14.80;99.90;;;13.82;100.00;102150.88;4946174;28;20032;-76
2023/09/05 00:20:08;;;;;;;9.18;4.43;;;14.80;99.90;;;13.86;100.00;102155.16;4947400;28;20098;-77
2023/09/05 00:22:35;;;;;;;7.20;3.88;;;14.90;99.90;;;13.91;100.00;102155.84;4941689;28;20034;-76
2023/09/05 00:25:01;;;;;;;7.53;3.95;;;14.90;99.90;;;13.94;100.00;102156.59;4942507;28;20506;-77
2023/09/05 00:27:27;;;;;;;6.32;4.38;;;14.90;99.90;;;13.94;100.00;102146.00;4951795;28;20066;-76
2023/09/05 00:29:53;;;;;;;7.68;3.85;;;14.90;99.90;;;13.94;100.00;102148.63;4945018;28;20441;-76
2023/09/05 00:32:19;;;;;;;8.88;3.85;;;14.90;99.90;;;13.91;100.00;102139.97;4977234;28;20046;-77
2023/09/05 00:34:47;;;;;;;6.10;3.70;;;14.90;99.90;;;13.91;100.00;102124.09;4943821;28;20027;-77
2023/09/05 00:37:21;;;;;;;7.90;3.92;;;15.00;99.90;;;13.94;100.00;102134.53;4941466;28;20078;-77
2023/09/05 00:39:47;;;;;;;6.40;3.78;;;14.90;99.90;;;13.95;100.00;102126.56;4946955;28;20024;-77
2023/09/05 00:42:14;;;;;;;6.63;4.13;;;15.00;99.90;;;13.99;100.00;102127.28;4945614;28;20504;-77
2023/09/05 00:44:41;;;;;;;5.80;3.53;;;15.00;99.90;;;14.05;100.00;102121.75;4943034;28;20105;-77
2023/09/05 00:47:07;;;;;;;5.93;3.47;;;15.00;99.90;;;14.06;100.00;102115.53;4956906;28;20063;-77
2023/09/05 00:49:38;;;;;;;10.82;3.90;;;15.00;99.90;;;14.13;100.00;102126.75;4945331;28;20461;-77
2023/09/05 00:52:07;;;;;;;7.00;4.00;;;15.10;99.90;;;14.15;100.00;102128.41;4946821;28;20039;-77
2023/09/05 00:54:36;;;;;;;6.18;3.70;;;15.10;99.90;;;14.15;100.00;102133.72;4932074;29;20039;-77
2023/09/05 00:57:01;;;;;;;8.20;3.80;;;15.10;99.90;;;14.14;100.00;102134.63;4952974;28;20035;-76
2023/09/05 00:59:27;;;;;;;7.55;3.03;;;15.10;99.90;;;14.12;100.00;102128.56;4927370;29;20055;-76
2023/09/05 01:01:56;;;;;;;6.43;3.25;;;15.10;99.90;;;14.09;100.00;102143.69;4957484;28;20047;-77
2023/09/05 01:04:25;;;;;;;6.97;3.13;;;15.00;99.90;;;14.05;100.00;102131.47;4946103;28;20119;-77
2023/09/05 01:07:13;;;;;;;5.25;3.67;;;14.90;99.90;;;14.01;100.00;102141.31;4943968;28;20136;-76
2023/09/05 01:10:01;;;;;;;5.75;4.25;;;14.90;99.90;;;13.95;100.00;102136.25;4950046;28;20517;-77
2023/09/05 01:12:27;;;;;;;6.20;3.22;;;14.80;99.90;;;13.89;100.00;102136.53;4942867;28;20043;-76
2023/09/05 01:14:53;;;;;;;10.93;3.63;;;14.80;99.90;;;13.85;100.00;102145.50;4944100;28;20386;-77
2023/09/05 01:17:18;;;;;;;4.55;2.72;;;14.80;99.90;;;13.82;100.00;102148.25;4946507;28;20038;-77
2023/09/05 01:19:46;;;;;;;4.03;2.70;;;14.70;99.90;;;13.77;99.83;102142.25;4944457;28;20024;-76
2023/09/05 01:22:52;;;;;;;4.30;2.50;;;14.70;99.90;;;13.71;98.79;102146.00;4943300;28;20039;-77
2023/09/05 01:25:19;;;;;;;4.45;2.80;;;14.60;99.90;;;13.63;97.76;102140.09;4877388;29;20048;-77
2023/09/05 01:27:48;;;;;;;3.35;2.25;;;14.60;99.90;;;13.57;96.71;102138.56;4892320;29;20044;-77
2023/09/05 01:30:15;;;;;;;6.15;3.15;;;14.50;99.90;;;13.52;96.22;102133.47;4877035;29;20135;-77
2023/09/05 01:32:41;;;;;;;4.07;2.85;;;14.40;99.90;;;13.49;96.07;102130.91;4875933;29;20139;-77
2023/09/05 01:35:08;;;;;;;8.32;3.58;;;14.40;99.90;;;13.47;96.33;102134.53;4875023;29;20512;-77
2023/09/05 01:37:33;;;;;;;4.20;3.15;;;14.40;99.90;;;13.44;96.89;102129.38;4890978;29;20104;-77
2023/09/05 01:39:59;;;;;;;8.68;3.28;;;14.40;99.90;;;13.43;97.04;102133.75;4891304;29;20059;-76
2023/09/05 01:42:25;;;;;;;5.20;3.30;;;14.40;99.90;;;13.43;97.87;102130.25;4860927;29;20475;-76
2023/09/05 01:44:50;;;;;;;5.50;3.63;;;14.30;99.90;;;13.42;97.86;102129.41;4875068;29;20055;-76
2023/09/05 01:47:16;;;;;;;7.78;3.20;;;14.40;99.90;;;13.41;98.25;102130.34;4860577;29;20039;-77
2023/09/05 01:49:42;;;;;;;4.85;3.50;;;14.40;99.90;;;13.40;98.53;102125.94;4879372;29;20053;-77
2023/09/05 01:52:08;;;;;;;6.68;3.55;;;14.30;99.90;;;13.40;99.34;102138.31;4874571;29;20518;-77
2023/09/05 01:54:38;;;;;;;5.97;3.25;;;14.40;99.90;;;13.41;99.57;102137.38;4891346;29;20032;-77
2023/09/05 01:57:04;;;;;;;4.68;3.55;;;14.30;99.90;;;13.42;99.49;102136.50;4889799;29;20115;-77
2023/09/05 01:59:30;;;;;;;4.43;3.28;;;14.40;99.90;;;13.41;99.20;102142.69;4875247;29;20036;-76
2023/09/05 02:01:55;;;;;;;7.60;4.20;;;14.30;99.90;;;13.40;99.00;102133.88;4923040;28;20046;-77
2023/09/05 02:04:21;;;;;;;9.85;4.25;;;14.30;99.90;;;13.37;100.00;102135.78;4942385;28;20038;-76
2023/09/05 02:06:47;;;;;;;5.32;3.95;;;14.30;99.90;;;13.36;100.00;102134.06;4950845;28;20501;-76
2023/09/05 02:09:13;;;;;;;7.63;4.20;;;14.40;99.90;;;13.41;100.00;102138.28;4943073;28;20421;-77
2023/09/05 02:11:38;;;;;;;6.03;4.53;;;14.40;99.90;;;13.47;100.00;102134.53;4938697;28;20063;-76
2023/09/05 02:14:05;;;;;;;7.97;4.18;;;14.50;99.90;;;13.54;100.00;102131.63;4944267;28;20034;-76
2023/09/05 02:16:31;;;;;;;4.63;3.55;;;14.50;99.90;;;13.57;100.00;102141.22;4943857;28;20031;-76
2023/09/05 02:18:56;;;;;;;1.83;1.33;;;14.50;99.90;;;13.46;100.00;102130.16;4943579;28;20055;-77
2023/09/05 02:21:22;;;;;;;2.03;1.30;;;14.40;99.90;;;13.39;100.00;102131.28;4940506;28;20053;-77
2023/09/05 02:23:48;;;;;;;1.70;1.40;;;14.30;99.90;;;13.31;100.00;102129.78;4940034;28;20404;-76
2023/09/05 02:26:14;;;;;;;2.92;2.15;;;14.30;99.90;;;13.27;99.18;102122.00;4943747;28;20047;-77
2023/09/05 02:28:39;;;;;;;7.75;3.75;;;14.20;99.90;;;13.23;100.00;102120.38;4944442;28;20027;-77
2023/09/05 02:31:06;;;;;;;6.38;3.25;;;14.20;99.90;;;13.18;100.00;102127.63;4958150;28;20027;-77
2023/09/05 02:33:36;;;;;;;5.03;3.30;;;14.10;99.90;;;13.11;100.00;102126.97;4941195;28;20039;-77
2023/09/05 02:36:18;;;;;;;4.07;3.13;;;14.00;99.90;;;13.03;99.62;102129.00;4971733;28;20170;-77
2023/09/05 02:38:44;;;;;;;9.60;4.78;;;14.00;99.90;;;12.98;99.83;102123.88;4941615;28;20489;-76
2023/09/05 02:41:12;;;;;;;11.60;4.70;;;14.00;99.90;;;12.98;100.00;102125.63;4932826;29;20035;-76
2023/09/05 02:43:39;;;;;;;19.50;5.03;;;14.00;99.90;;;12.97;100.00;102116.00;4940339;28;20027;-77
2023/09/05 02:46:04;;;;;;;10.77;4.22;;;13.90;99.90;;;12.96;100.00;102123.06;4940020;28;20393;-77
2023/09/05 02:48:30;;;;;;;7.30;4.63;;;13.90;99.90;;;12.93;100.00;102123.16;4940635;28;20036;-77
2023/09/05 02:51:05;;;;;;;9.18;5.35;;;13.90;99.90;;;12.92;100.00;102126.72;4943948;28;20054;-77
2023/09/05 02:53:32;;;;;;;7.55;4.65;;;13.90;99.90;;;12.93;100.00;102124.00;4975057;28;20051;-77
2023/09/05 02:55:58;;;;;;;7.97;4.03;;;13.90;99.90;;;12.95;100.00;102121.31;4940968;28;20050;-77
2023/09/05 02:58:26;;;;;;;4.95;2.80;;;13.90;99.90;;;12.92;100.00;102132.88;4939162;28;20031;-77
2023/09/05 03:01:03;;;;;;;6.80;2.90;;;13.90;99.90;;;12.85;100.00;102131.38;4944340;28;20034;-77
2023/09/05 03:03:29;;;;;;;3.55;2.38;;;13.90;99.90;;;12.80;100.00;102124.50;4906331;28;1052338;-77
2023/09/05 03:05:55;;;;;;;6.15;3.38;;;13.80;99.90;;;12.77;100.00;102120.19;4941715;28;20027;-77
2023/09/05 03:08:21;;;;;;;8.52;4.10;;;13.80;99.90;;;12.77;100.00;102121.97;4924583;28;20031;-77
2023/09/05 03:10:51;;;;;;;9.85;4.28;;;13.70;99.90;;;12.74;100.00;102125.56;4939461;28;20046;-77
2023/09/05 03:13:18;;;;;;;4.68;2.92;;;13.70;99.90;;;12.65;100.00;102112.66;4942547;28;21461;-77
2023/09/05 03:15:44;;;;;;;9.85;3.50;;;13.60;99.90;;;12.61;100.00;102116.31;4941867;28;20024;-77
2023/09/05 03:18:10;;;;;;;7.88;4.35;;;13.60;99.90;;;12.58;100.00;102112.00;4950828;28;20039;-76
2023/09/05 03:20:36;;;;;;;8.68;5.18;;;13.60;99.90;;;12.56;100.00;102110.31;4926941;28;20019;-77
2023/09/05 03:23:01;;;;;;;6.93;3.50;;;13.50;99.90;;;12.55;100.00;102109.47;4945955;28;20155;-77
2023/09/05 03:25:27;;;;;;;5.95;4.55;;;13.60;99.90;;;12.55;100.00;102104.19;4964764;28;20032;-77
2023/09/05 03:27:53;;;;;;;14.38;5.10;;;13.60;99.90;;;12.54;100.00;102099.78;4944995;28;20399;-77
2023/09/05 03:30:18;;;;;;;13.70;6.80;;;13.60;99.90;;;12.54;100.00;102099.78;4944283;28;20054;-76
2023/09/05 03:32:44;;;;;;;9.95;6.40;;;13.60;99.90;;;12.56;100.00;102095.31;4942314;28;20042;-77
2023/09/05 03:35:10;;;;;;;10.93;6.65;;;13.60;99.90;;;12.58;100.00;102087.34;4947022;28;20114;-77
2023/09/05 03:37:35;;;;;;;11.80;7.32;;;13.60;99.90;;;12.58;100.00;102082.06;4948389;28;20036;-77
2023/09/05 03:40:01;;;;;;;10.80;6.65;;;13.60;99.90;;;12.63;100.00;102088.06;4931311;28;20433;-77
2023/09/05 03:42:27;;;;;;;6.78;4.18;;;13.70;99.90;;;12.68;100.00;102089.66;4944860;28;20485;-77
2023/09/05 03:44:52;;;;;;;10.45;3.88;;;13.70;99.90;;;12.69;100.00;102085.22;4926902;28;20043;-77
2023/09/05 03:47:18;;;;;;;287.00;6.97;;;13.60;99.90;;;12.52;100.00;102089.28;4946021;28;20391;-77
2023/09/05 03:49:44;;;;;;;16.38;1.35;;;13.60;99.90;;;12.45;100.00;102090.41;4942822;28;20038;-76
2023/09/05 03:52:09;;;;;;;8.80;4.50;;;13.50;99.90;;;12.40;100.00;102087.06;4945790;28;20485;-77
2023/09/05 03:54:37;;;;;;;4.28;2.50;;;13.40;99.90;;;12.37;100.00;102089.78;4976217;28;20039;-76
2023/09/05 03:57:02;;;;;;;6.43;2.60;;;13.40;99.90;;;12.33;100.00;102096.06;4943505;28;20066;-77
2023/09/05 03:59:28;;;;;;;3.90;2.70;;;13.30;99.90;;;12.30;100.00;102093.53;4930587;28;20455;-77
2023/09/05 04:01:54;;;;;;;2.08;1.70;;;13.30;99.90;;;12.26;100.00;102087.47;4979305;28;20047;-77
2023/09/05 04:04:19;;;;;;;4.32;2.70;;;13.30;99.90;;;12.26;100.00;102094.53;4946366;28;20054;-77
2023/09/05 04:06:45;;;;;;;12.93;6.80;;;14.20;99.90;;;12.26;100.00;102094.53;4944924;28;20082;-77
2023/09/05 04:09:11;;;;;;;17.67;7.88;;;13.30;99.90;;;12.28;100.00;102095.38;4958819;28;20083;-77
2023/09/05 04:11:36;;;;;;;10.60;6.57;;;13.30;99.90;;;12.29;100.00;102090.03;4947824;28;20039;-77
2023/09/05 04:14:02;;;;;;;9.88;5.47;;;13.20;99.90;;;12.28;100.00;102092.72;4977649;28;20027;-77
2023/09/05 04:16:28;;;;;;;7.38;3.33;;;13.30;99.90;;;12.26;100.00;102092.75;4945255;28;20055;-77
2023/09/05 04:18:53;;;;;;;13.27;7.47;;;13.30;99.90;;;12.30;100.00;102090.91;4944204;28;20582;-77
2023/09/05 04:21:19;;;;;;;20.90;8.90;;;13.30;99.90;;;12.34;100.00;102091.66;4944114;28;20031;-77
2023/09/05 04:23:45;;;;;;;14.45;8.20;;;13.30;99.90;;;12.35;100.00;102091.59;4947802;28;20028;-75
2023/09/05 04:26:14;;;;;;;16.67;8.63;;;13.40;99.90;;;12.42;100.00;102100.19;4926301;29;20047;-77
2023/09/05 04:28:39;;;;;;;11.23;6.80;;;13.40;99.90;;;12.42;100.00;102101.06;4942839;28;20116;-76
2023/09/05 04:31:05;;;;;;;7.18;4.70;;;13.40;99.90;;;12.43;100.00;102102.78;4943315;28;20026;-77
2023/09/05 04:33:33;;;;;;;7.72;4.50;;;13.40;99.90;;;12.45;100.00;102103.59;4946147;28;20032;-77
2023/09/05 04:35:59;;;;;;;10.55;4.00;;;13.40;99.90;;;12.48;100.00;102110.56;4948761;28;20032;-77
2023/09/05 04:38:25;;;;;;;12.57;5.95;;;13.40;99.90;;;12.49;100.00;102110.53;4944863;28;20103;-77
2023/09/05 04:40:50;;;;;;;11.40;6.65;;;13.50;99.90;;;12.50;100.00;102114.91;4943554;28;20038;-77
2023/09/05 04:43:16;;;;;;;19.38;8.25;;;13.50;99.90;;;12.55;100.00;102098.00;4943860;28;20350;-77
2023/09/05 04:45:51;;;;;;;12.40;6.60;;;13.50;99.90;;;12.57;100.00;102104.09;4975208;28;20090;-77
2023/09/05 04:48:16;;;;;;;14.05;7.80;;;13.50;99.90;;;12.59;100.00;102103.16;4949217;28;20066;-77
2023/09/05 04:50:42;;;;;;;17.25;7.45;;;13.60;99.90;;;12.64;100.00;102103.88;4945528;28;20429;-77
2023/09/05 04:53:08;;;;;;;14.57;7.15;;;13.60;99.90;;;12.71;100.00;102101.88;4926652;28;20047;-77
2023/09/05 04:55:33;;;;;;;13.43;7.50;;;13.70;99.90;;;12.80;100.00;102101.56;4975771;28;20074;-76
2023/09/05 04:57:59;;;;;;;16.40;8.30;;;13.70;99.90;;;12.87;100.00;102104.84;4959428;28;20476;-77
2023/09/05 05:00:25;;;;;;;27.60;8.55;;;13.80;99.90;;;12.97;100.00;102113.34;4945978;28;20090;-77
2023/09/05 05:02:51;;;;;;;17.10;8.95;;;13.80;99.90;;;13.02;100.00;102114.91;4944139;28;20081;-77
2023/09/05 05:05:17;;;;;;;12.68;7.90;;;13.90;99.90;;;13.10;100.00;102115.50;4950510;28;20490;-77
2023/09/05 05:07:43;;;;;;;11.23;5.78;;;14.00;99.90;;;13.19;100.00;102114.31;4940715;28;20067;-77
2023/09/05 05:10:09;;;;;;;8.57;3.47;;;14.00;99.90;;;13.26;100.00;102113.19;4944985;28;20062;-77
2023/09/05 05:12:34;;;;;;;4.20;3.10;;;14.10;99.90;;;13.33;100.00;102109.44;4945487;28;20029;-77
2023/09/05 05:15:00;;;;;;;5.18;3.03;;;14.10;99.90;;;13.38;100.00;102113.69;4944025;28;20743;-77
2023/09/05 05:17:26;;;;;;;4.40;2.30;;;14.10;99.90;;;13.43;100.00;102112.59;4942700;28;20036;-77
2023/09/05 05:19:51;;;;;;;7.38;3.70;;;14.30;99.90;;;14.06;99.76;102114.66;4941925;28;20027;-77
2023/09/05 05:22:17;;;;;;;7.93;3.92;;;14.40;99.90;;;13.87;97.26;102109.22;4927321;28;20668;-77
2023/09/05 05:24:43;;;;;;;13.02;5.85;;;14.40;99.90;;;14.02;96.24;102103.34;4942576;28;20098;-77
2023/09/05 05:27:08;;;;;;;12.15;7.13;;;14.80;99.90;;;16.11;92.53;102120.00;4943988;28;20039;-77
2023/09/05 05:29:34;;;;;;;11.63;7.97;;;15.70;99.90;;;18.78;82.58;102126.31;4942561;28;20039;-77
2023/09/05 05:32:01;;;;;;;13.05;8.05;;;16.40;99.90;;;17.55;80.27;102119.84;4941856;28;20039;-77
2023/09/05 05:34:27;;;;;;;12.38;7.15;;;17.10;99.90;;;19.65;76.02;102133.47;4945843;28;20067;-77
2023/09/05 05:36:52;;;;;;;8.98;6.88;;;17.90;99.90;;;21.63;69.04;102156.97;4943668;28;20498;-77
2023/09/05 05:39:22;;;;;;;14.20;7.13;;;18.40;99.90;;;19.64;71.15;102129.09;4943341;28;20032;-77
2023/09/05 05:41:48;;;;;;;8.77;6.63;;;18.60;99.90;;;19.32;72.56;102117.72;4944427;28;20050;-77
2023/09/05 05:44:15;;;;;;;16.27;7.03;;;18.50;99.90;;;18.30;75.30;102114.84;4941941;28;20106;-77
2023/09/05 05:46:41;;;;;;;8.65;6.80;;;18.30;99.90;;;18.14;76.74;102121.06;4980829;28;20039;-77
2023/09/05 05:49:08;;;;;;;13.40;7.25;;;18.10;99.90;;;17.72;78.80;102119.78;4946941;28;20038;-77
2023/09/05 05:51:35;;;;;;;13.65;10.10;;;18.10;99.90;;;17.95;78.97;102134.53;4946121;28;20063;-77
2023/09/05 05:54:01;;;;;;;16.67;9.40;;;18.10;99.90;;;18.88;77.14;102135.50;4924706;28;20481;-77
2023/09/05 05:56:27;;;;;;;12.57;7.30;;;18.30;99.90;;;19.59;74.02;102148.09;4941962;28;20087;-77
2023/09/05 05:58:52;;;;;;;13.27;7.43;;;18.60;99.90;;;19.47;73.54;102144.34;4946376;28;20043;-77
2023/09/05 06:01:18;;;;;;;9.63;6.20;;;18.80;99.90;;;19.60;73.05;102141.78;4942624;28;20039;-77
2023/09/05 06:03:44;;;;;;;8.77;7.10;;;19.00;99.90;;;20.13;71.97;102142.03;4941637;28;20490;-77
2023/09/05 06:06:10;;;;;;;10.32;7.28;;;19.20;99.90;;;19.54;72.90;102138.63;4938087;28;20027;-76
2023/09/05 06:08:36;;;;;;;15.15;8.18;;;19.20;99.90;;;19.97;73.09;102146.66;4944571;28;20031;-77
2023/09/05 06:11:02;;;;;;;16.25;9.48;;;19.40;99.90;;;20.07;72.48;102143.28;4945395;28;20073;-77
2023/09/05 06:13:28;;;;;;;15.77;8.93;;;19.50;99.90;;;20.14;71.87;102140.22;4943700;28;20031;-77
2023/09/05 06:15:53;;;;;;;13.43;8.15;;;19.70;99.90;;;20.69;70.84;102156.22;4940843;28;20106;-77
2023/09/05 06:18:19;;;;;;;11.20;8.07;;;19.80;99.90;;;20.10;72.32;102147.56;4944402;28;20082;-77
2023/09/05 06:20:45;;;;;;;10.52;5.88;;;19.80;99.90;;;19.66;73.70;102153.91;4941648;28;20055;-77
2023/09/05 06:23:11;;;;;;;9.88;5.40;;;19.70;99.90;;;19.42;74.94;102151.78;4962792;28;20045;-77
2023/09/05 06:25:36;;;;;;;9.93;5.90;;;19.70;99.90;;;19.70;75.27;102155.47;4942582;28;20031;-77
2023/09/05 06:28:02;;;;;;;6.72;4.85;;;20.00;99.90;;;22.87;68.65;102182.78;4942734;28;20067;-77
2023/09/05 06:30:28;;;;;;;7.80;4.63;;;21.20;99.90;;;26.05;58.48;102212.41;4940054;28;20553;-77
2023/09/05 06:32:57;;;;;;;13.68;4.68;;;22.80;99.90;;;27.52;54.22;102214.19;4942093;28;20043;-77
2023/09/05 06:35:22;;;;;;;13.25;8.07;;;24.10;99.90;;;27.58;54.14;102216.31;4929113;29;20041;-77
2023/09/05 06:37:58;;;;;;;10.77;6.72;;;25.00;99.90;;;28.45;52.40;102235.03;4943981;28;20031;-77
2023/09/05 06:40:25;;;;;;;7.60;4.70;;;25.60;99.90;;;26.57;54.46;102218.50;4942789;28;20085;-77
2023/09/05 06:42:51;;;;;;;12.10;8.48;;;25.50;99.90;;;26.42;56.10;102219.03;4939878;28;20429;-77
2023/09/05 06:45:18;;;;;;;10.80;6.00;;;25.40;99.90;;;27.38;54.05;102233.59;4942677;28;20505;-77
2023/09/05 06:47:44;;;;;;;5.40;4.30;;;25.90;99.90;;;28.25;52.84;102243.28;4945069;28;20042;-77
2023/09/05 06:50:10;;;;;;;9.32;4.15;;;26.60;99.90;;;29.47;50.74;102261.75;4958623;28;20035;-77
2023/09/05 06:52:36;;;;;;;6.40;3.90;;;27.70;99.90;;;31.50;46.17;102279.94;4936562;29;20039;-76
2023/09/05 06:55:02;;;;;;;9.20;4.00;;;29.00;99.90;;;32.52;44.08;102293.72;4943748;28;20024;-77
2023/09/05 06:57:28;;;;;;;8.68;4.57;;;29.90;99.90;;;32.86;42.79;102302.41;4947629;28;20035;-77
2023/09/05 06:59:54;;;;;;;7.78;4.68;;;30.70;99.20;;;32.85;42.72;102299.84;4946755;28;20038;-77
2023/09/05 07:02:20;;;;;;;6.43;3.58;;;31.30;99.90;;;33.47;41.84;102309.78;4947410;28;20417;-77
2023/09/05 07:04:46;;;;;;;4.13;3.10;;;31.90;98.20;;;33.60;41.13;102314.63;4960533;28;20497;-77
2023/09/05 07:07:11;;;;;;;7.00;3.10;;;32.50;98.00;;;34.38;40.57;102318.69;4942275;28;20071;-76
2023/09/05 07:09:37;;;;;;;5.70;3.20;;;33.20;97.20;;;35.38;39.17;102329.88;4931623;28;20084;-77
2023/09/05 07:12:04;;;;;;;3.22;2.63;;;34.00;96.40;;;36.40;37.57;102340.28;4961024;28;20043;-77
2023/09/05 07:14:36;;;;;;;11.70;2.90;;;34.90;93.20;;;36.59;36.85;102340.56;4946986;28;20027;-78
2023/09/05 07:17:02;;;;;;;3.53;2.42;;;35.50;93.30;;;36.58;36.15;102345.19;4942750;28;20032;-77
2023/09/05 07:19:29;;;;;;;5.47;2.47;;;35.50;91.30;;;35.27;37.28;102342.22;4944870;28;20111;-77
2023/09/05 07:21:56;;;;;;;5.72;2.38;;;35.10;92.40;;;34.83;38.19;102341.34;4945188;28;20442;-77
2023/09/05 07:24:21;;;;;;;9.63;2.67;;;34.70;92.90;;;35.05;37.58;102335.88;4944984;28;20462;-77
2023/09/05 07:26:47;;;;;;;5.97;2.60;;;34.90;91.90;;;36.00;36.48;102341.94;4944847;28;20039;-77
2023/09/05 07:29:17;;;;;;;5.75;2.15;;;35.50;91.90;;;37.03;35.59;102362.03;4943756;28;20406;-77
2023/09/05 07:31:43;;;;;;;4.30;2.25;;;36.40;91.60;;;37.83;33.97;102361.25;4943003;28;20640;-78
2023/09/05 07:34:09;;;;;;;5.28;2.55;;;37.30;90.10;;;38.40;33.64;102373.34;4948241;28;20094;-77
2023/09/05 07:36:36;;;;;;;8.23;2.28;;;38.00;89.50;;;38.88;33.25;102386.72;4981692;28;20547;-77
2023/09/05 07:39:04;;;;;;;4.15;2.17;;;38.60;88.20;;;39.44;32.07;102396.13;4944512;28;20039;-77
2023/09/05 07:41:32;;;;;;;5.72;1.80;;;39.20;83.60;;;39.50;31.60;102388.84;4944102;28;20024;-74
2023/09/05 07:43:58;;;;;;;7.50;2.25;;;39.60;83.00;;;39.89;30.83;102392.31;4944597;28;20024;-74
2023/09/05 07:46:24;;;;;;;5.47;2.35;;;40.00;81.00;;;40.41;30.52;102391.97;4961232;28;20114;-74
2023/09/05 07:48:51;;;;;;;3.30;1.83;;;40.50;81.00;;;40.79;30.04;102386.19;4945667;28;20032;-75
2023/09/05 07:51:18;;;;;;;3.95;1.90;;;41.00;78.80;;;41.18;29.58;102390.28;4946796;28;20031;-74
2023/09/05 07:53:58;;;;;;;7.40;2.10;;;41.30;77.30;;;41.04;29.59;102385.16;4944292;28;20038;-74
2023/09/05 07:56:24;;;;;;;3.03;1.88;;;41.20;77.00;;;40.28;29.91;102376.44;4944780;28;20062;-74
2023/09/05 07:58:50;;;;;;;18.00;2.30;;;40.90;77.10;;;40.05;31.06;102369.66;4947565;28;20046;-75
2023/09/05 08:01:17;;;;;;;4.30;1.92;;;40.80;78.20;;;40.28;30.70;102357.09;4945134;28;20031;-74
2023/09/05 08:03:43;;;;;;;5.68;1.90;;;40.80;76.10;;;40.04;30.92;102356.09;4943634;28;20035;-74
2023/09/05 08:06:08;;;;;;;2.72;1.63;;;40.70;76.70;;;40.05;30.57;102350.38;4957078;28;20044;-74
2023/09/05 08:08:34;;;;;;;8.30;1.73;;;40.70;75.70;;;40.14;30.12;102357.25;4945865;28;20031;-75
2023/09/05 08:11:00;;;;;;;3.17;1.70;;;40.70;76.10;;;40.38;29.70;102347.22;4946486;28;20066;-74
2023/09/05 08:13:25;;;;;;;4.72;1.80;;;40.90;75.20;;;40.55;29.64;102346.56;4929446;29;20063;-75
2023/09/05 08:15:53;;;;;;;3.38;1.70;;;40.90;72.10;;;40.44;29.40;102344.63;4942494;28;20086;-74
2023/09/05 08:18:19;;;;;;;4.85;1.55;;;40.90;73.50;;;40.16;29.54;102351.50;4945265;28;20055;-75
2023/09/05 08:20:44;;;;;;;4.13;1.63;;;40.60;73.90;;;40.13;30.34;102344.53;4950423;28;20489;-75
2023/09/05 08:23:11;;;;;;;4.97;1.35;;;40.30;72.00;;;39.36;30.24;102328.31;4946386;28;20042;-75
2023/09/05 08:25:37;;;;;;;5.35;1.88;;;39.70;72.30;;;37.91;31.58;102306.03;4979734;28;20035;-76
2023/09/05 08:28:03;;;;;;;3.83;1.60;;;38.60;73.40;;;36.56;32.86;102284.19;4942814;28;20042;-75
2023/09/05 08:30:28;;;;;;;5.20;1.80;;;37.40;75.00;;;35.51;34.50;102259.66;4944172;28;20086;-75
2023/09/05 08:32:56;;;;;;;4.93;1.52;;;36.20;77.00;;;34.37;35.59;102240.47;4943101;28;20438;-74
2023/09/05 08:35:22;;;;;;;4.43;1.77;;;35.00;79.20;;;33.45;37.63;102211.66;4943762;28;20054;-74
2023/09/05 08:37:48;;;;;;;3.65;1.80;;;34.00;81.60;;;32.65;38.30;102190.41;4943427;28;20494;-75
2023/09/05 08:40:15;;;;;;;5.18;1.50;;;33.20;83.00;;;32.05;39.56;102178.31;4941287;28;20090;-75
2023/09/05 08:42:42;;;;;;;7.05;1.83;;;32.50;84.90;;;31.53;40.33;102151.63;4941922;28;20103;-77
2023/09/05 08:45:11;;;;;;;4.10;1.60;;;32.00;86.20;;;31.21;41.16;102140.66;4944869;28;20536;-77
2023/09/05 08:47:38;;;;;;;3.80;1.60;;;31.50;86.80;;;30.92;41.57;102129.50;4953109;28;20122;-77
2023/09/05 08:50:05;;;;;;;3.72;1.83;;;31.30;87.20;;;30.84;41.46;102128.47;4942596;28;20031;-77
2023/09/05 08:52:36;;;;;;;7.15;1.73;;;31.10;88.00;;;30.70;41.38;102118.25;4942189;28;20126;-77
2023/09/05 08:55:02;;;;;;;5.80;1.88;;;31.00;88.80;;;30.57;41.98;102117.94;4958119;28;20063;-77
2023/09/05 08:57:31;;;;;;;3.38;1.80;;;30.70;88.50;;;30.23;42.14;102118.88;4961569;28;20073;-77
2023/09/05 08:59:57;;;;;;;4.90;1.75;;;30.50;89.30;;;30.02;42.79;102109.34;4945176;28;20059;-77
2023/09/05 09:02:23;;;;;;;4.57;1.88;;;30.30;90.10;;;29.88;43.25;102111.84;4941704;28;20055;-77
2023/09/05 09:05:01;;;;;;;4.70;2.03;;;30.20;90.60;;;30.05;43.82;102110.88;4941313;28;20044;-77
2023/09/05 09:07:27;;;;;;;2.90;1.60;;;30.20;91.20;;;30.25;43.90;102104.09;4949973;28;20054;-77
2023/09/05 09:09:58;;;;;;;5.72;1.73;;;30.40;91.50;;;30.44;43.45;102105.69;4945426;28;20576;-76
2023/09/05 09:12:33;;;;;;;4.97;1.90;;;30.60;90.90;;;30.62;42.77;102112.81;4950441;28;20125;-76
2023/09/05 09:15:23;;;;;;;5.10;1.93;;;30.90;91.60;;;30.87;42.96;102108.25;4941125;28;20023;-76
2023/09/05 09:17:51;;;;;;;5.00;1.80;;;31.00;90.80;;;30.87;43.19;102102.81;4941327;28;20034;-75
2023/09/05 09:20:19;;;;;;;3.53;1.63;;;31.00;90.70;;;30.82;43.26;102094.28;4935636;28;20024;-76
2023/09/05 09:22:55;;;;;;;2.63;1.77;;;31.00;91.40;;;30.73;43.88;102085.28;4943673;28;20058;-75
2023/09/05 09:25:21;;;;;;;8.00;1.85;;;31.00;90.70;;;30.81;43.59;102087.16;4943651;28;20494;-76
2023/09/05 09:27:54;;;;;;;3.75;1.60;;;31.10;90.80;;;30.92;43.00;102077.81;4942280;28;20051;-76
2023/09/05 09:30:30;;;;;;;2.72;1.52;;;31.10;91.10;;;30.85;42.79;102080.34;4945676;28;20032;-75
2023/09/05 09:33:00;;;;;;;10.73;1.50;;;31.10;91.10;;;30.78;43.70;102074.75;4976775;28;20035;-76
2023/09/05 09:35:28;;;;;;;2.03;1.50;;;31.00;90.40;;;30.57;43.31;102071.72;4947782;28;20075;-75
2023/09/05 09:37:56;;;;;;;3.97;1.80;;;30.80;91.00;;;30.20;44.09;102062.19;4943246;28;20031;-75
2023/09/05 09:40:21;;;;;;;4.28;1.67;;;30.70;91.60;;;30.22;45.15;102052.84;4950098;28;20492;-75
2023/09/05 09:42:54;;;;;;;2.33;1.40;;;30.50;90.50;;;29.69;45.07;102051.41;4943233;28;20052;-76
2023/09/05 09:45:25;;;;;;;4.38;1.58;;;30.50;91.50;;;30.13;44.58;102056.59;4944091;28;20060;-75
2023/09/05 09:47:53;;;;;;;3.28;1.80;;;30.50;91.70;;;30.24;44.61;102053.53;4942513;28;20032;-76
2023/09/05 09:50:19;;;;;;;2.72;1.40;;;30.50;90.80;;;30.13;43.99;102055.72;4943645;28;20041;-75
2023/09/05 09:52:50;;;;;;;3.63;1.40;;;30.30;91.70;;;29.91;45.27;102057.22;4941230;28;20122;-75
2023/09/05 09:55:18;;;;;;;2.78;1.60;;;30.20;91.60;;;29.47;45.61;102043.84;4945523;28;20049;-75
2023/09/05 09:57:56;;;;;;;2.58;1.60;;;29.90;91.50;;;29.13;46.24;102036.56;4944763;28;20544;-75
2023/09/05 10:00:24;;;;;;;2.30;1.33;;;29.60;92.60;;;29.01;46.97;102033.28;4942103;28;20050;-75
2023/09/05 10:02:50;;;;;;;4.07;1.40;;;29.40;92.60;;;28.86;47.13;102030.31;4940642;28;20057;-75
2023/09/05 10:05:19;;;;;;;3.80;1.40;;;29.40;93.10;;;28.76;47.10;102030.41;4942722;28;20073;-75
2023/09/05 10:07:49;;;;;;;3.45;1.20;;;29.20;92.00;;;28.72;46.20;102033.59;4944247;28;20038;-75